createdAt,value
2019-02-26T00:00:27.067Z,984.49
2019-02-26T00:01:28.584Z,984.52
2019-02-26T00:02:28.799Z,984.54
2019-02-26T00:03:28.626Z,984.50
2019-02-26T00:04:27.305Z,984.49
2019-02-26T00:05:28.489Z,984.48
2019-02-26T00:06:28.466Z,984.45
2019-02-26T00:07:28.172Z,984.49
2019-02-26T00:08:27.460Z,984.53
2019-02-26T00:09:27.625Z,984.52
2019-02-26T00:10:27.243Z,984.47
2019-02-26T00:11:28.514Z,984.47
2019-02-26T00:12:28.614Z,984.51
2019-02-26T00:13:27.171Z,984.52
2019-02-26T00:14:27.572Z,984.51
2019-02-26T00:15:26.236Z,984.55
2019-02-26T00:16:26.245Z,984.53
2019-02-26T00:17:26.121Z,984.56
2019-02-26T00:18:26.084Z,984.55
2019-02-26T00:19:25.998Z,984.55
2019-02-26T00:20:26.007Z,984.57
2019-02-26T00:21:26.438Z,984.57
2019-02-26T00:22:25.876Z,984.57
2019-02-26T00:23:27.824Z,984.58
2019-02-26T00:24:25.765Z,984.60
2019-02-26T00:25:25.660Z,984.60
2019-02-26T00:26:25.731Z,984.61
2019-02-26T00:27:26.262Z,984.61
2019-02-26T00:28:25.604Z,984.59
2019-02-26T00:29:27.608Z,984.60
2019-02-26T00:30:25.400Z,984.59
2019-02-26T00:31:26.143Z,984.62
2019-02-26T00:32:25.286Z,984.63
2019-02-26T00:33:26.791Z,984.66
2019-02-26T00:34:25.249Z,984.68
2019-02-26T00:35:25.785Z,984.66
2019-02-26T00:36:27.026Z,984.65
2019-02-26T00:37:26.357Z,984.66
2019-02-26T00:38:25.008Z,984.64
2019-02-26T00:39:25.523Z,984.63
2019-02-26T00:40:24.886Z,984.65
2019-02-26T00:41:26.727Z,984.64
2019-02-26T00:42:26.316Z,984.61
2019-02-26T00:43:26.041Z,984.61
2019-02-26T00:44:25.166Z,984.63
2019-02-26T00:45:26.953Z,984.60
2019-02-26T00:46:26.150Z,984.61
2019-02-26T00:47:24.531Z,984.59
2019-02-26T00:48:24.540Z,984.57
2019-02-26T00:49:25.817Z,984.56
2019-02-26T00:50:24.331Z,984.56
2019-02-26T00:51:24.829Z,984.53
2019-02-26T00:52:24.214Z,984.53
2019-02-26T00:53:25.984Z,984.50
2019-02-26T00:54:26.268Z,984.56
2019-02-26T00:55:27.333Z,984.54
2019-02-26T00:56:25.318Z,984.58
2019-02-26T00:57:27.153Z,984.54
2019-02-26T00:58:23.856Z,984.55
2019-02-26T00:59:23.852Z,984.54
2019-02-26T01:00:24.679Z,984.52
2019-02-26T01:01:23.893Z,984.52
2019-02-26T01:02:23.610Z,984.54
2019-02-26T01:03:23.615Z,984.55
2019-02-26T01:04:23.579Z,984.53
2019-02-26T01:05:23.497Z,984.55
2019-02-26T01:06:25.128Z,984.55
2019-02-26T01:07:23.861Z,984.55
2019-02-26T01:08:23.275Z,984.54
2019-02-26T01:09:25.118Z,984.56
2019-02-26T01:10:23.632Z,984.53
2019-02-26T01:11:23.831Z,984.56
2019-02-26T01:12:23.111Z,984.51
2019-02-26T01:13:25.017Z,984.57
2019-02-26T01:14:24.277Z,984.49
2019-02-26T01:15:22.895Z,984.48
2019-02-26T01:16:22.863Z,984.46
2019-02-26T01:17:22.780Z,984.42
2019-02-26T01:18:24.468Z,984.43
2019-02-26T01:19:22.745Z,984.41
2019-02-26T01:20:24.699Z,984.42
2019-02-26T01:21:26.225Z,984.44
2019-02-26T01:22:22.542Z,984.41
2019-02-26T01:23:24.261Z,984.40
2019-02-26T01:24:24.328Z,984.41
2019-02-26T01:25:22.966Z,984.43
2019-02-26T01:26:22.304Z,984.46
2019-02-26T01:27:22.267Z,984.42
2019-02-26T01:28:22.973Z,984.44
2019-02-26T01:29:23.039Z,984.37
2019-02-26T01:30:24.319Z,984.32
2019-02-26T01:31:22.867Z,984.31
2019-02-26T01:32:23.168Z,984.30
2019-02-26T01:33:22.932Z,984.31
2019-02-26T01:34:21.828Z,984.28
2019-02-26T01:35:21.910Z,984.24
2019-02-26T01:36:23.689Z,984.24
2019-02-26T01:37:21.708Z,984.23
2019-02-26T01:38:23.703Z,984.22
2019-02-26T01:39:23.330Z,984.21
2019-02-26T01:40:23.563Z,984.20
2019-02-26T01:41:23.282Z,984.21
2019-02-26T01:42:22.981Z,984.25
2019-02-26T01:43:21.351Z,984.25
2019-02-26T01:44:21.318Z,984.28
2019-02-26T01:45:22.360Z,984.26
2019-02-26T01:46:21.245Z,984.24
2019-02-26T01:47:21.901Z,984.24
2019-02-26T01:48:21.083Z,984.22
2019-02-26T01:49:21.608Z,984.26
2019-02-26T01:50:21.000Z,984.24
2019-02-26T01:51:21.886Z,984.25
2019-02-26T01:52:20.874Z,984.24
2019-02-26T01:53:21.474Z,984.26
2019-02-26T01:54:20.843Z,984.25
2019-02-26T01:55:22.514Z,984.24
2019-02-26T01:56:20.639Z,984.24
2019-02-26T01:57:20.599Z,984.20
2019-02-26T01:58:20.518Z,984.18
2019-02-26T01:59:20.514Z,984.17
2019-02-26T02:00:20.394Z,984.15
2019-02-26T02:01:22.011Z,984.12
2019-02-26T02:02:22.426Z,984.08
2019-02-26T02:03:20.804Z,984.03
2019-02-26T02:04:20.161Z,984.01
2019-02-26T02:05:21.605Z,984.01
2019-02-26T02:06:20.126Z,984.03
2019-02-26T02:07:21.320Z,984.04
2019-02-26T02:08:22.417Z,984.06
2019-02-26T02:09:20.524Z,984.05
2019-02-26T02:10:19.817Z,984.05
2019-02-26T02:11:23.401Z,984.05
2019-02-26T02:12:19.763Z,984.03
2019-02-26T02:13:19.681Z,984.07
2019-02-26T02:14:19.645Z,984.03
2019-02-26T02:15:21.626Z,984.06
2019-02-26T02:16:19.567Z,984.06
2019-02-26T02:17:19.454Z,983.99
2019-02-26T02:18:21.010Z,983.99
2019-02-26T02:19:20.856Z,983.98
2019-02-26T02:20:21.475Z,983.90
2019-02-26T02:21:19.287Z,983.94
2019-02-26T02:22:21.239Z,983.87
2019-02-26T02:23:21.073Z,983.92
2019-02-26T02:24:20.558Z,983.89
2019-02-26T02:25:18.983Z,983.92
2019-02-26T02:26:18.973Z,983.88
2019-02-26T02:27:20.335Z,983.87
2019-02-26T02:28:19.564Z,983.93
2019-02-26T02:29:19.189Z,983.94
2019-02-26T02:30:23.292Z,983.89
2019-02-26T02:31:18.693Z,983.87
2019-02-26T02:32:20.722Z,983.81
2019-02-26T02:33:23.657Z,983.83
2019-02-26T02:34:18.486Z,983.83
2019-02-26T02:35:19.317Z,983.75
2019-02-26T02:36:20.509Z,983.76
2019-02-26T02:37:23.761Z,983.76
2019-02-26T02:38:20.443Z,983.75
2019-02-26T02:39:20.789Z,983.76
2019-02-26T02:40:18.133Z,983.73
2019-02-26T02:41:18.219Z,983.70
2019-02-26T02:42:19.157Z,983.72
2019-02-26T02:43:20.709Z,983.71
2019-02-26T02:44:20.361Z,983.71
2019-02-26T02:45:20.964Z,983.73
2019-02-26T02:46:17.870Z,983.73
2019-02-26T02:47:17.771Z,983.78
2019-02-26T02:48:17.738Z,983.77
2019-02-26T02:49:18.000Z,983.79
2019-02-26T02:50:18.536Z,983.76
2019-02-26T02:51:17.553Z,983.76
2019-02-26T02:52:17.500Z,983.80
2019-02-26T02:53:20.488Z,983.74
2019-02-26T02:54:18.573Z,983.75
2019-02-26T02:55:19.269Z,983.75
2019-02-26T02:56:18.001Z,983.76
2019-02-26T02:57:17.187Z,983.69
2019-02-26T02:58:18.183Z,983.71
2019-02-26T02:59:17.072Z,983.64
2019-02-26T03:00:17.225Z,983.65
2019-02-26T03:01:20.410Z,983.64
2019-02-26T03:02:17.798Z,983.62
2019-02-26T03:03:16.839Z,983.63
2019-02-26T03:04:19.604Z,983.60
2019-02-26T03:05:16.795Z,983.59
2019-02-26T03:06:16.703Z,983.60
2019-02-26T03:07:18.053Z,983.60
2019-02-26T03:08:19.387Z,983.58
2019-02-26T03:09:17.729Z,983.63
2019-02-26T03:10:16.466Z,983.60
2019-02-26T03:11:16.435Z,983.62
2019-02-26T03:12:16.345Z,983.61
2019-02-26T03:13:16.950Z,983.60
2019-02-26T03:14:18.493Z,983.61
2019-02-26T03:15:16.227Z,983.60
2019-02-26T03:16:18.748Z,983.59
2019-02-26T03:17:18.192Z,983.54
2019-02-26T03:18:16.920Z,983.56
2019-02-26T03:19:17.010Z,983.53
2019-02-26T03:20:15.891Z,983.55
2019-02-26T03:21:16.780Z,983.55
2019-02-26T03:22:18.158Z,983.54
2019-02-26T03:23:19.509Z,983.54
2019-02-26T03:24:15.719Z,983.51
2019-02-26T03:25:17.495Z,983.56
2019-02-26T03:26:17.656Z,983.56
2019-02-26T03:27:15.513Z,983.58
2019-02-26T03:28:15.473Z,983.54
2019-02-26T03:29:15.473Z,983.56
2019-02-26T03:30:20.202Z,983.50
2019-02-26T03:31:15.356Z,983.54
2019-02-26T03:32:15.270Z,983.54
2019-02-26T03:33:15.161Z,983.52
2019-02-26T03:34:21.783Z,983.54
2019-02-26T03:35:16.655Z,983.53
2019-02-26T03:36:16.724Z,983.49
2019-02-26T03:37:15.003Z,983.51
2019-02-26T03:38:15.929Z,983.46
2019-02-26T03:39:14.878Z,983.47
2019-02-26T03:40:14.796Z,983.45
2019-02-26T03:41:16.603Z,983.44
2019-02-26T03:42:16.662Z,983.43
2019-02-26T03:43:16.210Z,983.43
2019-02-26T03:44:14.551Z,983.37
2019-02-26T03:45:14.558Z,983.39
2019-02-26T03:46:14.520Z,983.41
2019-02-26T03:47:16.308Z,983.40
2019-02-26T03:48:19.306Z,983.42
2019-02-26T03:49:14.322Z,983.41
2019-02-26T03:50:14.286Z,983.42
2019-02-26T03:51:17.166Z,983.41
2019-02-26T03:52:15.903Z,983.40
2019-02-26T03:53:14.075Z,983.39
2019-02-26T03:54:14.047Z,983.41
2019-02-26T03:55:15.427Z,983.43
2019-02-26T03:56:14.886Z,983.41
2019-02-26T03:57:14.223Z,983.41
2019-02-26T03:58:13.808Z,983.43
2019-02-26T03:59:13.725Z,983.38
2019-02-26T04:00:14.936Z,983.38
2019-02-26T04:01:16.003Z,983.36
2019-02-26T04:02:15.479Z,983.40
2019-02-26T04:03:15.164Z,983.40
2019-02-26T04:04:13.481Z,983.40
2019-02-26T04:05:13.448Z,983.41
2019-02-26T04:06:13.367Z,983.40
2019-02-26T04:07:13.259Z,983.42
2019-02-26T04:08:13.241Z,983.40
2019-02-26T04:09:14.520Z,983.40
2019-02-26T04:10:13.124Z,983.35
2019-02-26T04:11:13.973Z,983.41
2019-02-26T04:12:15.305Z,983.42
2019-02-26T04:13:12.980Z,983.39
2019-02-26T04:14:15.014Z,983.37
2019-02-26T04:15:12.852Z,983.42
2019-02-26T04:16:12.860Z,983.47
2019-02-26T04:17:12.735Z,983.43
2019-02-26T04:18:12.648Z,983.37
2019-02-26T04:19:12.647Z,983.37
2019-02-26T04:20:12.615Z,983.34
2019-02-26T04:21:14.363Z,983.36
2019-02-26T04:22:14.804Z,983.33
2019-02-26T04:23:14.213Z,983.35
2019-02-26T04:24:12.312Z,983.36
2019-02-26T04:25:12.375Z,983.34
2019-02-26T04:26:15.985Z,983.31
2019-02-26T04:27:12.174Z,983.32
2019-02-26T04:28:12.168Z,983.33
2019-02-26T04:29:12.056Z,983.29
2019-02-26T04:30:13.660Z,983.28
2019-02-26T04:31:11.934Z,983.28
2019-02-26T04:32:12.121Z,983.30
2019-02-26T04:33:14.056Z,983.32
2019-02-26T04:34:11.841Z,983.32
2019-02-26T04:35:11.695Z,983.33
2019-02-26T04:36:12.551Z,983.35
2019-02-26T04:37:12.897Z,983.31
2019-02-26T04:38:11.658Z,983.34
2019-02-26T04:39:13.641Z,983.33
2019-02-26T04:40:13.972Z,983.32
2019-02-26T04:41:15.157Z,983.34
2019-02-26T04:42:13.682Z,983.36
2019-02-26T04:43:12.865Z,983.32
2019-02-26T04:44:11.310Z,983.33
2019-02-26T04:45:11.185Z,983.31
2019-02-26T04:46:13.437Z,983.30
2019-02-26T04:47:11.069Z,983.29
2019-02-26T04:48:14.740Z,983.30
2019-02-26T04:49:10.945Z,983.29
2019-02-26T04:50:10.947Z,983.28
2019-02-26T04:51:10.864Z,983.27
2019-02-26T04:52:14.033Z,983.24
2019-02-26T04:53:11.199Z,983.21
2019-02-26T04:54:10.632Z,983.18
2019-02-26T04:55:10.722Z,983.17
2019-02-26T04:56:12.782Z,983.19
2019-02-26T04:57:10.502Z,983.15
2019-02-26T04:58:12.227Z,983.14
2019-02-26T04:59:11.850Z,983.15
2019-02-26T05:00:10.718Z,983.16
2019-02-26T05:01:12.364Z,983.16
2019-02-26T05:02:10.229Z,983.18
2019-02-26T05:03:13.604Z,983.21
2019-02-26T05:04:10.154Z,983.20
2019-02-26T05:05:10.038Z,983.18
2019-02-26T05:06:10.859Z,983.20
2019-02-26T05:07:13.181Z,983.18
2019-02-26T05:08:12.066Z,983.23
2019-02-26T05:09:10.614Z,983.23
2019-02-26T05:10:09.820Z,983.17
2019-02-26T05:11:14.881Z,983.21
2019-02-26T05:12:09.679Z,983.20
2019-02-26T05:13:09.838Z,983.26
2019-02-26T05:14:11.190Z,983.28
2019-02-26T05:15:13.901Z,983.33
2019-02-26T05:16:09.523Z,983.28
2019-02-26T05:17:09.395Z,983.29
2019-02-26T05:18:09.308Z,983.32
2019-02-26T05:19:10.655Z,983.31
2019-02-26T05:20:12.408Z,983.34
2019-02-26T05:21:10.819Z,983.33
2019-02-26T05:22:09.073Z,983.35
2019-02-26T05:23:09.158Z,983.35
2019-02-26T05:24:08.952Z,983.33
2019-02-26T05:25:13.367Z,983.39
2019-02-26T05:26:11.550Z,983.34
2019-02-26T05:27:10.199Z,983.34
2019-02-26T05:28:10.063Z,983.33
2019-02-26T05:29:08.800Z,983.31
2019-02-26T05:30:09.839Z,983.32
2019-02-26T05:31:09.700Z,983.35
2019-02-26T05:32:09.319Z,983.35
2019-02-26T05:33:08.570Z,983.33
2019-02-26T05:34:08.480Z,983.32
2019-02-26T05:35:08.373Z,983.32
2019-02-26T05:36:09.464Z,983.32
2019-02-26T05:37:10.988Z,983.31
2019-02-26T05:38:09.645Z,983.34
2019-02-26T05:39:08.204Z,983.32
2019-02-26T05:40:10.498Z,983.33
2019-02-26T05:41:08.002Z,983.31
2019-02-26T05:42:08.003Z,983.29
2019-02-26T05:43:07.904Z,983.33
2019-02-26T05:44:10.511Z,983.36
2019-02-26T05:45:09.392Z,983.34
2019-02-26T05:46:07.850Z,983.35
2019-02-26T05:47:07.729Z,983.35
2019-02-26T05:48:07.646Z,983.38
2019-02-26T05:49:12.529Z,983.38
2019-02-26T05:50:13.104Z,983.39
2019-02-26T05:51:09.333Z,983.40
2019-02-26T05:52:07.407Z,983.46
2019-02-26T05:53:08.439Z,983.48
2019-02-26T05:54:08.219Z,983.48
2019-02-26T05:55:07.254Z,983.46
2019-02-26T05:56:08.952Z,983.47
2019-02-26T05:57:10.877Z,983.47
2019-02-26T05:58:07.942Z,983.51
2019-02-26T05:59:09.596Z,983.53
2019-02-26T06:00:08.421Z,983.51
2019-02-26T06:01:35.459Z,983.53
2019-02-26T06:02:06.829Z,983.51
2019-02-26T06:03:09.670Z,983.49
2019-02-26T06:04:07.777Z,983.49
2019-02-26T06:05:06.687Z,983.50
2019-02-26T06:06:06.663Z,983.51
2019-02-26T06:07:06.573Z,983.55
2019-02-26T06:08:06.542Z,983.55
2019-02-26T06:09:07.721Z,983.52
2019-02-26T06:10:06.420Z,983.53
2019-02-26T06:11:06.329Z,983.54
2019-02-26T06:12:06.304Z,983.56
2019-02-26T06:13:07.663Z,983.57
2019-02-26T06:14:09.468Z,983.58
2019-02-26T06:15:08.076Z,983.56
2019-02-26T06:16:07.589Z,983.54
2019-02-26T06:17:07.360Z,983.58
2019-02-26T06:18:06.067Z,983.55
2019-02-26T06:19:06.552Z,983.56
2019-02-26T06:20:08.093Z,983.57
2019-02-26T06:21:05.859Z,983.54
2019-02-26T06:22:05.734Z,983.53
2019-02-26T06:23:05.698Z,983.57
2019-02-26T06:24:05.620Z,983.54
2019-02-26T06:25:12.454Z,983.53
2019-02-26T06:26:09.742Z,983.56
2019-02-26T06:27:08.583Z,983.55
2019-02-26T06:28:07.694Z,983.55
2019-02-26T06:29:05.349Z,983.54
2019-02-26T06:30:07.488Z,983.53
2019-02-26T06:31:05.341Z,983.52
2019-02-26T06:32:07.271Z,983.51
2019-02-26T06:33:07.129Z,983.50
2019-02-26T06:34:06.458Z,983.50
2019-02-26T06:35:08.108Z,983.50
2019-02-26T06:36:06.408Z,983.46
2019-02-26T06:37:05.570Z,983.49
2019-02-26T06:38:06.819Z,983.43
2019-02-26T06:39:05.982Z,983.40
2019-02-26T06:40:05.681Z,983.43
2019-02-26T06:41:04.660Z,983.42
2019-02-26T06:42:05.288Z,983.42
2019-02-26T06:43:04.626Z,983.43
2019-02-26T06:44:04.545Z,983.43
2019-02-26T06:45:06.483Z,983.44
2019-02-26T06:46:05.346Z,983.47
2019-02-26T06:47:04.785Z,983.44
2019-02-26T06:48:04.305Z,983.48
2019-02-26T06:49:04.270Z,983.44
2019-02-26T06:50:07.553Z,983.42
2019-02-26T06:51:04.597Z,983.42
2019-02-26T06:52:05.935Z,983.43
2019-02-26T06:53:04.604Z,983.47
2019-02-26T06:54:04.048Z,983.47
2019-02-26T06:55:05.963Z,983.43
2019-02-26T06:56:03.829Z,983.41
2019-02-26T06:57:03.796Z,983.43
2019-02-26T06:58:03.715Z,983.51
2019-02-26T06:59:05.286Z,983.50
2019-02-26T07:00:04.286Z,983.56
2019-02-26T07:01:03.552Z,983.54
2019-02-26T07:02:03.473Z,983.56
2019-02-26T07:03:03.444Z,983.59
2019-02-26T07:04:03.349Z,983.62
2019-02-26T07:05:03.354Z,983.60
2019-02-26T07:06:04.903Z,983.59
2019-02-26T07:07:04.417Z,983.63
2019-02-26T07:08:04.786Z,983.62
2019-02-26T07:09:03.110Z,983.66
2019-02-26T07:10:03.078Z,983.71
2019-02-26T07:11:03.875Z,983.79
2019-02-26T07:12:02.966Z,983.85
2019-02-26T07:13:05.064Z,983.90
2019-02-26T07:14:03.640Z,983.94
2019-02-26T07:15:02.764Z,983.94
2019-02-26T07:16:05.185Z,983.90
2019-02-26T07:17:02.666Z,983.96
2019-02-26T07:18:06.793Z,983.93
2019-02-26T07:19:03.929Z,983.89
2019-02-26T07:20:03.171Z,983.91
2019-02-26T07:21:02.526Z,983.88
2019-02-26T07:22:02.402Z,983.97
2019-02-26T07:23:03.911Z,983.96
2019-02-26T07:24:03.439Z,984.02
2019-02-26T07:25:02.283Z,984.07
2019-02-26T07:26:02.281Z,984.09
2019-02-26T07:27:04.145Z,984.11
2019-02-26T07:28:02.926Z,984.16
2019-02-26T07:29:03.459Z,984.12
2019-02-26T07:30:02.040Z,984.18
2019-02-26T07:31:02.735Z,984.16
2019-02-26T07:32:01.937Z,984.16
2019-02-26T07:33:03.103Z,984.04
2019-02-26T07:34:03.177Z,984.06
2019-02-26T07:35:03.943Z,984.18
2019-02-26T07:36:04.047Z,984.19
2019-02-26T07:37:01.769Z,984.24
2019-02-26T07:38:03.491Z,984.24
2019-02-26T07:39:01.689Z,984.25
2019-02-26T07:40:03.766Z,984.26
2019-02-26T07:41:03.632Z,984.23
2019-02-26T07:42:01.533Z,984.19
2019-02-26T07:43:04.855Z,984.24
2019-02-26T07:44:01.443Z,984.26
2019-02-26T07:45:01.452Z,984.27
2019-02-26T07:46:01.335Z,984.28
2019-02-26T07:47:03.670Z,984.29
2019-02-26T07:48:01.303Z,984.25
2019-02-26T07:49:04.202Z,984.24
2019-02-26T07:50:04.045Z,984.28
2019-02-26T07:51:02.181Z,984.26
2019-02-26T07:52:03.882Z,984.21
2019-02-26T07:53:01.103Z,984.23
2019-02-26T07:54:01.054Z,984.23
2019-02-26T07:55:01.055Z,984.24
2019-02-26T07:56:01.787Z,984.23
2019-02-26T07:57:02.612Z,984.22
2019-02-26T07:58:00.938Z,984.22
2019-02-26T07:59:03.778Z,984.21
2019-02-26T08:00:00.842Z,984.23
2019-02-26T08:01:00.749Z,984.20
2019-02-26T08:02:01.766Z,984.20
2019-02-26T08:03:02.110Z,984.18
2019-02-26T08:04:00.632Z,984.20
2019-02-26T08:05:00.611Z,984.16
2019-02-26T08:06:04.688Z,984.10
2019-02-26T08:07:01.904Z,984.14
2019-02-26T08:08:00.578Z,984.21
2019-02-26T08:09:00.495Z,984.25
2019-02-26T08:10:00.460Z,984.30
2019-02-26T08:11:00.374Z,984.35
2019-02-26T08:12:02.067Z,984.36
2019-02-26T08:13:01.555Z,984.27
2019-02-26T08:14:01.551Z,984.20
2019-02-26T08:15:02.324Z,984.27
2019-02-26T08:16:02.332Z,984.33
2019-02-26T08:17:01.883Z,984.38
2019-02-26T08:18:01.329Z,984.40
2019-02-26T08:19:01.382Z,984.35
2019-02-26T08:20:01.865Z,984.36
2019-02-26T08:21:02.454Z,984.40
2019-02-26T08:22:00.113Z,984.40
2019-02-26T08:23:01.388Z,984.43
2019-02-26T08:23:59.993Z,984.46
2019-02-26T08:24:59.908Z,984.41
2019-02-26T08:26:02.155Z,984.42
2019-02-26T08:27:01.427Z,984.46
2019-02-26T08:28:01.293Z,984.45
2019-02-26T08:29:00.211Z,984.46
2019-02-26T08:30:00.931Z,984.42
2019-02-26T08:30:59.663Z,984.44
2019-02-26T08:32:01.856Z,984.45
2019-02-26T08:33:01.943Z,984.50
2019-02-26T08:33:59.567Z,984.54
2019-02-26T08:35:00.109Z,984.53
2019-02-26T08:35:59.547Z,984.48
2019-02-26T08:36:59.520Z,984.50
2019-02-26T08:37:59.521Z,984.48
2019-02-26T08:38:59.445Z,984.43
2019-02-26T08:39:59.428Z,984.51
2019-02-26T08:40:59.399Z,984.54
2019-02-26T08:41:59.322Z,984.49
2019-02-26T08:42:59.698Z,984.49
2019-02-26T08:43:59.274Z,984.52
2019-02-26T08:44:59.208Z,984.54
2019-02-26T08:45:59.195Z,984.49
2019-02-26T08:46:59.187Z,984.50
2019-02-26T08:47:59.191Z,984.50
2019-02-26T08:49:07.870Z,984.42
2019-02-26T08:50:01.259Z,984.50
2019-02-26T08:51:03.107Z,984.53
2019-02-26T08:51:59.038Z,984.50
2019-02-26T08:52:59.048Z,984.50
2019-02-26T08:53:58.954Z,984.49
2019-02-26T08:54:58.951Z,984.43
2019-02-26T08:56:01.376Z,984.35
2019-02-26T08:56:58.843Z,984.36
2019-02-26T08:57:58.841Z,984.42
2019-02-26T08:59:00.788Z,984.37
2019-02-26T08:59:58.800Z,984.42
2019-02-26T09:00:58.713Z,984.41
2019-02-26T09:01:58.713Z,984.42
2019-02-26T09:02:58.687Z,984.42
2019-02-26T09:04:00.693Z,984.41
2019-02-26T09:04:59.274Z,984.41
2019-02-26T09:06:10.937Z,984.37
2019-02-26T09:07:00.240Z,984.43
2019-02-26T09:07:58.570Z,984.45
2019-02-26T09:09:00.196Z,984.43
2019-02-26T09:09:58.451Z,984.46
2019-02-26T09:10:58.377Z,984.45
2019-02-26T09:12:00.646Z,984.43
2019-02-26T09:12:58.356Z,984.47
2019-02-26T09:13:59.569Z,984.46
2019-02-26T09:14:58.257Z,984.52
2019-02-26T09:16:00.480Z,984.51
2019-02-26T09:16:59.702Z,984.43
2019-02-26T09:17:58.240Z,984.41
2019-02-26T09:18:58.130Z,984.44
2019-02-26T09:20:08.298Z,984.43
2019-02-26T09:20:58.131Z,984.41
2019-02-26T09:21:58.095Z,984.28
2019-02-26T09:22:59.648Z,984.10
2019-02-26T09:24:00.021Z,984.02
2019-02-26T09:25:01.455Z,983.98
2019-02-26T09:26:00.407Z,983.98
2019-02-26T09:26:59.940Z,983.91
2019-02-26T09:27:57.889Z,983.95
2019-02-26T09:28:57.858Z,983.98
2019-02-26T09:29:57.858Z,983.98
2019-02-26T09:31:01.047Z,983.93
2019-02-26T09:31:57.770Z,983.91
2019-02-26T09:32:59.065Z,983.89
2019-02-26T09:33:57.663Z,983.89
2019-02-26T09:34:59.196Z,983.88
2019-02-26T09:35:57.739Z,983.91
2019-02-26T09:36:58.237Z,983.93
2019-02-26T09:38:00.617Z,983.91
2019-02-26T09:38:57.536Z,983.88
2019-02-26T09:39:59.227Z,983.86
2019-02-26T09:40:57.532Z,983.89
2019-02-26T09:41:59.263Z,983.90
2019-02-26T09:43:00.002Z,983.91
2019-02-26T09:43:59.421Z,983.93
2019-02-26T09:44:59.646Z,983.92
2019-02-26T09:45:57.380Z,983.97
2019-02-26T09:46:58.320Z,983.97
2019-02-26T09:47:58.057Z,983.95
2019-02-26T09:48:57.818Z,983.96
2019-02-26T09:49:58.384Z,983.99
2019-02-26T09:50:57.178Z,984.02
2019-02-26T09:51:58.941Z,984.10
2019-02-26T09:52:59.121Z,984.11
2019-02-26T09:53:58.872Z,984.13
2019-02-26T09:54:57.140Z,984.11
2019-02-26T09:55:57.019Z,984.16
2019-02-26T09:56:57.021Z,984.17
2019-02-26T09:57:56.958Z,984.20
2019-02-26T09:58:56.946Z,984.22
2019-02-26T09:59:58.099Z,984.20
2019-02-26T10:00:56.814Z,984.21
2019-02-26T10:01:58.779Z,984.17
2019-02-26T10:02:56.788Z,984.19
2019-02-26T10:03:58.467Z,984.20
2019-02-26T10:04:56.783Z,984.18
2019-02-26T10:05:57.908Z,984.19
2019-02-26T10:06:56.699Z,984.19
2019-02-26T10:07:59.721Z,984.24
2019-02-26T10:08:56.580Z,984.21
2019-02-26T10:09:56.547Z,984.25
2019-02-26T10:10:57.600Z,984.27
2019-02-26T10:11:56.546Z,984.22
2019-02-26T10:12:59.293Z,984.20
2019-02-26T10:13:56.435Z,984.24
2019-02-26T10:14:59.595Z,984.19
2019-02-26T10:15:58.632Z,984.17
2019-02-26T10:16:56.983Z,984.21
2019-02-26T10:17:58.678Z,984.16
2019-02-26T10:18:56.771Z,984.18
2019-02-26T10:19:56.959Z,984.20
2019-02-26T10:20:56.198Z,984.20
2019-02-26T10:21:57.394Z,984.22
2019-02-26T10:22:58.614Z,984.22
2019-02-26T10:23:56.712Z,984.17
2019-02-26T10:24:56.008Z,984.15
2019-02-26T10:25:57.835Z,984.14
2019-02-26T10:26:58.671Z,984.17
2019-02-26T10:27:55.988Z,984.17
2019-02-26T10:29:02.300Z,984.20
2019-02-26T10:29:55.866Z,984.15
2019-02-26T10:30:56.971Z,984.16
2019-02-26T10:31:56.701Z,984.19
2019-02-26T10:32:55.750Z,984.19
2019-02-26T10:33:55.714Z,984.21
2019-02-26T10:34:55.726Z,984.22
2019-02-26T10:35:55.633Z,984.22
2019-02-26T10:36:55.719Z,984.25
2019-02-26T10:37:57.138Z,984.22
2019-02-26T10:38:57.755Z,984.19
2019-02-26T10:39:55.513Z,984.18
2019-02-26T10:40:57.354Z,984.16
2019-02-26T10:41:55.480Z,984.15
2019-02-26T10:42:55.400Z,984.14
2019-02-26T10:43:55.370Z,984.11
2019-02-26T10:44:55.359Z,984.11
2019-02-26T10:45:55.272Z,984.10
2019-02-26T10:46:55.274Z,984.08
2019-02-26T10:47:56.700Z,984.11
2019-02-26T10:48:55.154Z,984.10
2019-02-26T10:49:56.461Z,984.10
2019-02-26T10:50:55.121Z,984.09
2019-02-26T10:51:55.564Z,984.10
2019-02-26T10:52:57.598Z,984.08
2019-02-26T10:53:57.528Z,984.07
2019-02-26T10:54:55.001Z,984.02
2019-02-26T10:55:54.932Z,984.02
2019-02-26T10:56:54.893Z,984.01
2019-02-26T10:57:55.249Z,984.04
2019-02-26T10:58:58.728Z,983.96
2019-02-26T10:59:56.980Z,983.96
2019-02-26T11:00:55.723Z,983.93
2019-02-26T11:01:55.326Z,983.92
2019-02-26T11:02:54.691Z,983.92
2019-02-26T11:03:55.188Z,983.95
2019-02-26T11:04:55.520Z,983.96
2019-02-26T11:05:54.572Z,983.95
2019-02-26T11:06:54.527Z,983.94
2019-02-26T11:07:55.806Z,983.96
2019-02-26T11:08:55.735Z,983.97
2019-02-26T11:09:56.483Z,983.97
2019-02-26T11:10:54.322Z,983.98
2019-02-26T11:11:54.969Z,983.92
2019-02-26T11:12:56.269Z,983.93
2019-02-26T11:13:54.207Z,983.94
2019-02-26T11:14:56.190Z,983.98
2019-02-26T11:15:56.555Z,983.95
2019-02-26T11:16:54.093Z,983.95
2019-02-26T11:17:55.895Z,983.93
2019-02-26T11:18:54.052Z,983.93
2019-02-26T11:19:55.526Z,983.92
2019-02-26T11:20:55.959Z,983.93
2019-02-26T11:21:55.960Z,983.90
2019-02-26T11:22:53.931Z,983.87
2019-02-26T11:23:53.935Z,983.84
2019-02-26T11:24:56.123Z,983.82
2019-02-26T11:25:53.756Z,983.86
2019-02-26T11:26:53.728Z,983.83
2019-02-26T11:27:53.734Z,983.81
2019-02-26T11:28:53.697Z,983.80
2019-02-26T11:29:54.646Z,983.79
2019-02-26T11:30:54.945Z,983.83
2019-02-26T11:31:53.576Z,983.82
2019-02-26T11:32:56.131Z,983.79
2019-02-26T11:33:56.424Z,983.80
2019-02-26T11:34:55.116Z,983.81
2019-02-26T11:35:53.457Z,983.78
2019-02-26T11:36:56.009Z,983.76
2019-02-26T11:37:55.362Z,983.79
2019-02-26T11:38:53.255Z,983.77
2019-02-26T11:39:55.003Z,983.77
2019-02-26T11:40:53.258Z,983.77
2019-02-26T11:41:54.575Z,983.78
2019-02-26T11:42:53.135Z,983.79
2019-02-26T11:43:53.109Z,983.79
2019-02-26T11:44:53.027Z,983.78
2019-02-26T11:45:53.014Z,983.77
2019-02-26T11:46:54.308Z,983.78
2019-02-26T11:47:52.912Z,983.74
2019-02-26T11:48:54.953Z,983.77
2019-02-26T11:49:52.863Z,983.77
2019-02-26T11:50:52.797Z,983.77
2019-02-26T11:51:52.869Z,983.78
2019-02-26T11:52:54.966Z,983.77
2019-02-26T11:53:52.753Z,983.76
2019-02-26T11:54:52.662Z,983.74
2019-02-26T11:55:54.467Z,983.73
2019-02-26T11:56:52.672Z,983.75
2019-02-26T11:57:52.541Z,983.68
2019-02-26T11:58:52.538Z,983.69
2019-02-26T11:59:52.543Z,983.72
2019-02-26T12:00:52.425Z,983.68
2019-02-26T12:01:54.013Z,983.64
2019-02-26T12:02:52.388Z,983.65
2019-02-26T12:03:55.903Z,983.62
2019-02-26T12:04:52.387Z,983.64
2019-02-26T12:05:54.205Z,983.63
2019-02-26T12:06:52.196Z,983.63
2019-02-26T12:07:53.827Z,983.61
2019-02-26T12:08:52.186Z,983.64
2019-02-26T12:09:52.071Z,983.60
2019-02-26T12:10:52.415Z,983.62
2019-02-26T12:11:52.035Z,983.62
2019-02-26T12:12:54.021Z,983.59
2019-02-26T12:13:53.165Z,983.61
2019-02-26T12:14:51.914Z,983.61
2019-02-26T12:15:51.839Z,983.57
2019-02-26T12:16:51.837Z,983.58
2019-02-26T12:17:53.780Z,983.56
2019-02-26T12:18:51.839Z,983.55
2019-02-26T12:19:53.350Z,983.50
2019-02-26T12:20:51.721Z,983.49
2019-02-26T12:21:52.755Z,983.49
2019-02-26T12:22:52.363Z,983.44
2019-02-26T12:23:51.599Z,983.47
2019-02-26T12:24:55.715Z,983.42
2019-02-26T12:25:53.619Z,983.43
2019-02-26T12:26:52.416Z,983.40
2019-02-26T12:27:51.370Z,983.39